createdAt,value
2019-04-11T00:01:53.499Z,5.60
2019-04-11T00:04:24.138Z,5.60
2019-04-11T00:06:54.023Z,5.60
2019-04-11T00:09:23.446Z,5.60
2019-04-11T00:11:52.537Z,5.60
2019-04-11T00:14:22.092Z,5.60
2019-04-11T00:16:51.250Z,5.60
2019-04-11T00:19:21.175Z,5.60
2019-04-11T00:21:50.400Z,5.60
2019-04-11T00:24:20.986Z,5.60
2019-04-11T00:26:50.702Z,5.60
2019-04-11T00:29:20.559Z,5.60
2019-04-11T00:31:51.189Z,5.50
2019-04-11T00:34:20.626Z,5.50
2019-04-11T00:36:52.670Z,5.50
2019-04-11T00:39:21.946Z,5.60
2019-04-11T00:41:51.025Z,5.60
2019-04-11T00:44:21.355Z,5.50
2019-04-11T00:46:50.898Z,5.50
2019-04-11T00:49:20.420Z,5.50
2019-04-11T00:51:49.914Z,5.50
2019-04-11T00:54:19.171Z,5.50
2019-04-11T00:56:48.529Z,5.40
2019-04-11T00:59:18.276Z,5.40
2019-04-11T01:01:47.542Z,5.30
2019-04-11T01:04:17.861Z,5.30
2019-04-11T01:06:47.985Z,5.30
2019-04-11T01:09:17.989Z,5.30
2019-04-11T01:11:47.898Z,5.30
2019-04-11T01:14:17.398Z,5.30
2019-04-11T01:16:54.248Z,5.30
2019-04-11T01:19:23.345Z,5.30
2019-04-11T01:21:52.921Z,5.30
2019-04-11T01:24:22.414Z,5.20
2019-04-11T01:26:51.921Z,5.20
2019-04-11T01:29:21.017Z,5.20
2019-04-11T01:31:54.389Z,5.20
2019-04-11T01:34:24.554Z,5.20
2019-04-11T01:36:53.793Z,5.20
2019-04-11T01:39:29.514Z,5.20
2019-04-11T01:41:58.701Z,5.20
2019-04-11T01:44:28.406Z,5.20
2019-04-11T01:46:58.341Z,5.20
2019-04-11T01:49:28.303Z,5.10
2019-04-11T01:51:58.161Z,5.10
2019-04-11T01:54:28.060Z,5.10
2019-04-11T01:56:58.008Z,5.10
2019-04-11T01:59:27.693Z,5.10
2019-04-11T02:02:28.706Z,5.10
2019-04-11T02:05:08.363Z,5.10
2019-04-11T02:07:38.568Z,5.10
2019-04-11T02:10:08.564Z,5.10
2019-04-11T02:12:39.357Z,5.10
2019-04-11T02:15:08.823Z,5.00
2019-04-11T02:17:41.086Z,5.10
2019-04-11T02:20:10.617Z,5.10
2019-04-11T02:22:48.674Z,5.10
2019-04-11T02:25:44.967Z,5.10
2019-04-11T02:28:16.808Z,5.10
2019-04-11T02:30:48.771Z,5.00
2019-04-11T02:33:18.476Z,5.00
2019-04-11T02:35:49.213Z,5.10
2019-04-11T02:38:19.130Z,5.10
2019-04-11T02:40:50.170Z,5.10
2019-04-11T02:43:20.445Z,5.00
2019-04-11T02:46:00.072Z,5.00
2019-04-11T02:48:21.330Z,5.00
2019-04-11T02:50:51.077Z,5.00
2019-04-11T02:53:21.255Z,5.00
2019-04-11T02:55:52.157Z,5.00
2019-04-11T02:58:23.035Z,5.00
2019-04-11T03:00:53.806Z,5.00
2019-04-11T03:03:25.292Z,5.00
2019-04-11T03:05:55.435Z,5.00
2019-04-11T03:08:26.782Z,4.90
2019-04-11T03:10:57.572Z,4.90
2019-04-11T03:13:27.293Z,4.90
2019-04-11T03:16:10.106Z,4.90
2019-04-11T03:18:45.807Z,4.90
2019-04-11T03:21:04.599Z,4.90
2019-04-11T03:23:31.121Z,4.90
2019-04-11T03:26:00.849Z,4.90
2019-04-11T03:28:35.354Z,4.90
2019-04-11T03:31:42.499Z,4.90
2019-04-11T03:37:00.226Z,4.80
2019-04-11T03:39:00.336Z,4.80
2019-04-11T03:41:24.398Z,4.80
2019-04-11T03:43:50.906Z,4.90
2019-04-11T03:46:30.280Z,4.80
2019-04-11T03:48:53.036Z,4.80
2019-04-11T03:51:13.636Z,4.80
2019-04-11T03:53:45.006Z,4.80
2019-04-11T03:56:16.312Z,4.80
2019-04-11T03:58:46.245Z,4.80
2019-04-11T04:01:18.270Z,4.80
2019-04-11T04:03:49.013Z,4.80
2019-04-11T04:06:19.245Z,4.80
2019-04-11T04:08:50.675Z,4.80
2019-04-11T04:11:27.338Z,4.80
2019-04-11T04:14:06.035Z,4.80
2019-04-11T04:16:51.033Z,4.80
2019-04-11T04:19:32.889Z,4.80
2019-04-11T04:22:08.724Z,4.70
2019-04-11T04:24:42.340Z,4.70
2019-04-11T04:27:11.344Z,4.70
2019-04-11T04:29:41.357Z,4.70
2019-04-11T04:32:12.067Z,4.70
2019-04-11T04:34:42.247Z,4.70
2019-04-11T04:37:14.111Z,4.70
2019-04-11T04:39:43.740Z,4.70
2019-04-11T04:42:23.568Z,4.60
2019-04-11T04:44:45.125Z,4.60
2019-04-11T04:47:23.732Z,4.60
2019-04-11T04:49:45.996Z,4.70
2019-04-11T04:52:16.448Z,4.60
2019-04-11T04:54:46.527Z,4.60
2019-04-11T04:57:18.074Z,4.60
2019-04-11T04:59:48.995Z,4.50
2019-04-11T05:02:20.046Z,4.50
2019-04-11T05:04:48.954Z,4.60
2019-04-11T05:07:19.450Z,4.50
2019-04-11T05:09:50.376Z,4.60
2019-04-11T05:12:20.510Z,4.60
2019-04-11T05:14:50.418Z,4.60
2019-04-11T05:17:20.941Z,4.60
2019-04-11T05:19:50.909Z,4.60
2019-04-11T05:22:22.400Z,4.60
2019-04-11T05:24:51.774Z,4.50
2019-04-11T05:27:20.994Z,4.60
2019-04-11T05:29:50.122Z,4.60
2019-04-11T05:32:20.097Z,4.60
2019-04-11T05:34:51.103Z,4.60
2019-04-11T05:37:20.808Z,4.60
2019-04-11T05:39:50.893Z,4.70
2019-04-11T05:42:24.907Z,4.70
2019-04-11T05:44:51.519Z,4.70
2019-04-11T05:47:21.410Z,4.70
2019-04-11T05:50:12.974Z,4.70
2019-04-11T05:52:40.017Z,4.70
2019-04-11T05:55:12.347Z,4.70
2019-04-11T05:57:44.760Z,4.80
2019-04-11T06:00:23.471Z,4.80
2019-04-11T06:02:59.693Z,4.80
2019-04-11T06:05:44.897Z,4.80
2019-04-11T06:08:23.110Z,4.90
2019-04-11T06:10:52.509Z,4.90
2019-04-11T06:13:26.778Z,4.90
2019-04-11T06:16:00.650Z,4.90
2019-04-11T06:18:54.114Z,4.90
2019-04-11T06:21:33.617Z,4.90
2019-04-11T06:24:40.623Z,5.00
2019-04-11T06:27:15.863Z,5.00
2019-04-11T06:30:17.919Z,5.10
2019-04-11T06:33:06.244Z,5.10
2019-04-11T06:36:06.469Z,5.20
2019-04-11T06:38:51.225Z,5.20
2019-04-11T06:41:41.446Z,5.30
2019-04-11T06:44:27.999Z,5.30
2019-04-11T06:47:05.406Z,5.40
2019-04-11T06:50:13.185Z,5.50
2019-04-11T06:52:43.280Z,5.50
2019-04-11T06:55:18.278Z,5.60
2019-04-11T06:57:48.123Z,5.60
2019-04-11T07:00:17.775Z,5.70
2019-04-11T07:02:54.972Z,5.70
2019-04-11T07:05:26.649Z,5.70
2019-04-11T07:07:56.181Z,5.80
2019-04-11T07:10:31.449Z,5.80
2019-04-11T07:13:18.466Z,5.80
2019-04-11T07:15:53.393Z,5.90
2019-04-11T07:19:00.629Z,5.90
2019-04-11T07:21:35.638Z,6.00
2019-04-11T07:24:43.134Z,6.00
2019-04-11T07:27:15.978Z,6.10
2019-04-11T07:30:03.283Z,6.10
2019-04-11T07:32:34.248Z,6.20
2019-04-11T07:35:42.015Z,6.30
2019-04-11T07:38:16.025Z,6.30
2019-04-11T07:41:13.535Z,6.40
2019-04-11T07:43:43.229Z,6.40
2019-04-11T07:46:40.673Z,6.50
2019-04-11T07:49:10.349Z,6.60
2019-04-11T07:51:45.932Z,6.60
2019-04-11T07:54:17.950Z,6.70
2019-04-11T07:57:06.313Z,6.80
2019-04-11T07:59:57.842Z,6.80
2019-04-11T08:02:45.574Z,6.90
2019-04-11T08:05:32.931Z,7.00
2019-04-11T08:08:34.587Z,7.00
2019-04-11T08:11:10.090Z,7.00
2019-04-11T08:13:58.235Z,7.10
2019-04-11T08:16:49.247Z,7.20
2019-04-11T08:19:35.954Z,7.20
2019-04-11T08:22:23.069Z,7.30
2019-04-11T08:25:13.663Z,7.40
2019-04-11T08:27:54.897Z,7.50
2019-04-11T08:30:19.089Z,7.60
2019-04-11T08:32:51.952Z,7.60
2019-04-11T08:35:53.408Z,7.60
2019-04-11T08:38:26.864Z,7.70
2019-04-11T08:41:21.202Z,7.70
2019-04-11T08:43:51.198Z,7.80
2019-04-11T08:46:37.162Z,7.90
2019-04-11T08:49:10.085Z,8.00
2019-04-11T08:51:39.198Z,8.00
2019-04-11T08:54:39.721Z,8.10
2019-04-11T08:57:10.093Z,8.10
2019-04-11T09:00:04.254Z,8.00
2019-04-11T09:02:42.870Z,8.00
2019-04-11T09:05:26.952Z,8.10
2019-04-11T09:08:16.390Z,8.20
2019-04-11T09:10:58.249Z,8.20
2019-04-11T09:13:49.456Z,8.30
2019-04-11T09:16:37.452Z,8.40
2019-04-11T09:19:14.807Z,8.60
2019-04-11T09:22:02.314Z,8.70
2019-04-11T09:24:56.949Z,8.80
2019-04-11T09:27:51.312Z,8.90
2019-04-11T09:30:43.528Z,8.90
2019-04-11T09:33:31.582Z,8.90
2019-04-11T09:36:01.784Z,9.00
2019-04-11T09:38:31.093Z,9.00
2019-04-11T09:41:12.987Z,9.00
2019-04-11T09:43:42.371Z,9.10
2019-04-11T09:46:27.581Z,9.00
2019-04-11T09:49:06.581Z,9.10
2019-04-11T09:51:42.261Z,9.00
2019-04-11T09:54:40.049Z,9.00
2019-04-11T09:57:37.666Z,9.00
2019-04-11T10:00:28.852Z,9.10
2019-04-11T10:03:01.849Z,9.20
2019-04-11T10:05:36.136Z,9.20
2019-04-11T10:08:12.734Z,9.10
2019-04-11T10:10:59.869Z,9.10
2019-04-11T10:13:51.291Z,9.10
2019-04-11T10:16:38.045Z,9.10
2019-04-11T10:19:27.596Z,9.20
2019-04-11T10:22:04.850Z,9.30
2019-04-11T10:24:55.344Z,9.30
2019-04-11T10:27:36.331Z,9.20
2019-04-11T10:30:25.814Z,9.20
2019-04-11T10:32:57.786Z,9.20
2019-04-11T10:36:00.838Z,9.30
2019-04-11T10:38:30.729Z,9.40
2019-04-11T10:41:19.153Z,9.50
2019-04-11T10:43:49.532Z,9.50
2019-04-11T10:46:37.539Z,9.30
2019-04-11T10:49:38.681Z,9.40
2019-04-11T10:52:22.556Z,9.30
2019-04-11T10:55:09.640Z,9.40
2019-04-11T10:57:57.306Z,9.40
2019-04-11T11:00:31.851Z,9.30
2019-04-11T11:03:10.068Z,9.30
2019-04-11T11:05:41.246Z,9.50
2019-04-11T11:08:17.649Z,9.50
2019-04-11T11:10:47.961Z,9.60
2019-04-11T11:13:45.891Z,9.60
2019-04-11T11:16:15.926Z,9.70
2019-04-11T11:19:26.208Z,9.90
2019-04-11T11:21:33.929Z,10.10
2019-04-11T11:24:39.090Z,10.10
2019-04-11T11:27:05.857Z,10.10
2019-04-11T11:29:54.042Z,10.10
2019-04-11T11:32:27.330Z,10.10
2019-04-11T11:35:15.120Z,10.20
2019-04-11T11:37:47.282Z,10.40
2019-04-11T11:40:45.026Z,10.30
2019-04-11T11:43:18.943Z,10.40
2019-04-11T11:46:17.505Z,10.40
2019-04-11T11:49:06.177Z,10.50
2019-04-11T11:51:58.451Z,10.60
2019-04-11T11:54:31.405Z,10.90
2019-04-11T11:57:06.532Z,11.10
2019-04-11T11:59:42.835Z,11.20
2019-04-11T12:02:23.028Z,11.10
2019-04-11T12:05:07.859Z,11.10
2019-04-11T12:07:41.010Z,11.00
2019-04-11T12:10:23.959Z,10.90
2019-04-11T12:13:19.241Z,10.70
2019-04-11T12:16:19.070Z,10.60
2019-04-11T12:18:54.341Z,10.60
2019-04-11T12:21:28.099Z,10.50
2019-04-11T12:24:19.504Z,10.60
2019-04-11T12:26:57.060Z,10.70
2019-04-11T12:29:38.595Z,11.00
2019-04-11T12:32:10.395Z,11.20
2019-04-11T12:34:59.747Z,11.40
2019-04-11T12:37:33.908Z,11.20
2019-04-11T12:40:40.129Z,11.00
2019-04-11T12:43:09.811Z,10.80
2019-04-11T12:45:56.769Z,10.60
2019-04-11T12:48:36.078Z,10.60
2019-04-11T12:51:36.395Z,10.80
2019-04-11T12:54:09.166Z,10.90
2019-04-11T12:57:17.533Z,10.80
2019-04-11T12:59:46.487Z,10.80
2019-04-11T13:02:33.689Z,10.90
2019-04-11T13:05:03.716Z,11.00
2019-04-11T13:07:43.794Z,11.10
2019-04-11T13:10:25.567Z,11.30
2019-04-11T13:13:19.682Z,11.50
2019-04-11T13:16:12.505Z,11.50
2019-04-11T13:19:03.558Z,11.60
2019-04-11T13:21:58.879Z,11.50
2019-04-11T13:24:52.189Z,11.50
2019-04-11T13:27:26.730Z,11.20
2019-04-11T13:30:17.657Z,11.40
2019-04-11T13:32:52.175Z,11.50
2019-04-11T13:35:43.577Z,11.70
2019-04-11T13:38:17.319Z,11.80
2019-04-11T13:41:05.996Z,11.90
2019-04-11T13:43:42.338Z,11.80
2019-04-11T13:46:39.649Z,12.00
2019-04-11T13:49:21.982Z,11.70
2019-04-11T13:52:11.958Z,11.30
2019-04-11T13:54:47.565Z,11.60
2019-04-11T13:57:54.032Z,11.80
2019-04-11T14:00:40.954Z,11.90
2019-04-11T14:03:31.716Z,11.90
2019-04-11T14:06:04.995Z,12.00
2019-04-11T14:08:40.511Z,12.10
2019-04-11T14:11:12.800Z,12.30
2019-04-11T14:13:43.194Z,12.20
2019-04-11T14:16:16.403Z,12.20
2019-04-11T14:18:56.426Z,12.50
2019-04-11T14:21:25.661Z,12.70
2019-04-11T14:24:11.363Z,12.80
2019-04-11T14:26:42.916Z,12.80
2019-04-11T14:29:40.878Z,12.70
2019-04-11T14:32:35.115Z,12.70
2019-04-11T14:35:35.762Z,12.70
2019-04-11T14:38:08.871Z,12.80
2019-04-11T14:41:03.941Z,12.70
2019-04-11T14:43:36.056Z,12.70
2019-04-11T14:46:24.266Z,12.60
2019-04-11T14:49:23.530Z,12.70
2019-04-11T14:52:27.326Z,12.70
2019-04-11T14:54:59.218Z,12.50
2019-04-11T14:57:46.844Z,12.50
2019-04-11T15:00:44.611Z,12.30
2019-04-11T15:03:44.643Z,12.30
2019-04-11T15:06:23.598Z,12.20
2019-04-11T15:09:35.817Z,12.40
2019-04-11T15:12:29.939Z,12.50
2019-04-11T15:18:06.214Z,12.50
2019-04-11T15:20:36.759Z,12.40
2019-04-11T15:23:12.523Z,12.30
2019-04-11T15:26:10.043Z,12.30
2019-04-11T15:28:54.382Z,12.00
2019-04-11T15:31:39.456Z,12.00
2019-04-11T15:37:47.505Z,11.80
2019-04-11T15:40:37.871Z,11.70
2019-04-11T15:43:42.112Z,11.80
2019-04-11T15:46:26.643Z,11.70
2019-04-11T15:49:21.265Z,11.60
2019-04-11T15:51:48.636Z,11.50
2019-04-11T15:54:42.888Z,11.60
2019-04-11T15:57:15.928Z,11.50
2019-04-11T16:00:08.085Z,11.50
2019-04-11T16:02:51.195Z,11.40
2019-04-11T16:05:48.791Z,11.40
2019-04-11T16:08:38.846Z,11.40
2019-04-11T16:11:25.891Z,11.40
2019-04-11T16:14:20.166Z,11.30
2019-04-11T16:17:13.331Z,11.30
2019-04-11T16:19:53.618Z,11.20
2019-04-11T16:22:34.346Z,11.10
2019-04-11T16:25:10.688Z,11.00
2019-04-11T16:28:08.308Z,10.90
2019-04-11T16:30:58.623Z,10.80
2019-04-11T16:33:58.927Z,10.70
2019-04-11T16:36:35.130Z,10.60
2019-04-11T16:39:25.217Z,10.60
2019-04-11T16:42:02.774Z,10.60
2019-04-11T16:45:00.170Z,10.60
2019-04-11T16:47:40.769Z,10.60
2019-04-11T16:50:10.534Z,10.60
2019-04-11T16:52:39.748Z,10.50
2019-04-11T16:55:10.051Z,10.50
2019-04-11T16:57:44.028Z,10.50
2019-04-11T17:00:12.645Z,10.40
2019-04-11T17:02:41.974Z,10.40
2019-04-11T17:05:11.340Z,10.40
2019-04-11T17:08:02.454Z,10.40
2019-04-11T17:10:50.404Z,10.40
2019-04-11T17:13:20.354Z,10.50
2019-04-11T17:15:49.639Z,10.50
2019-04-11T17:18:19.131Z,10.40
2019-04-11T17:20:48.190Z,10.30
2019-04-11T17:23:17.821Z,10.30
2019-04-11T17:25:48.286Z,10.20
2019-04-11T17:28:17.856Z,10.30
2019-04-11T17:30:47.387Z,10.30
2019-04-11T17:33:16.738Z,10.30
2019-04-11T17:35:47.202Z,10.20
2019-04-11T17:38:16.278Z,10.10
2019-04-11T17:40:45.434Z,10.10
2019-04-11T17:43:14.776Z,10.10
2019-04-11T17:45:48.721Z,10.10
2019-04-11T17:49:13.530Z,10.10
2019-04-11T17:52:20.172Z,10.10
2019-04-11T17:55:36.160Z,10.10
2019-04-11T17:58:05.366Z,10.10
2019-04-11T18:00:38.162Z,10.10
2019-04-11T18:03:07.511Z,10.00
2019-04-11T18:05:39.587Z,10.00
2019-04-11T18:08:08.759Z,9.90
2019-04-11T18:10:37.962Z,9.90
2019-04-11T18:13:07.046Z,9.80
2019-04-11T18:15:36.171Z,9.80
2019-04-11T18:18:05.997Z,9.80
2019-04-11T18:20:37.545Z,9.60
2019-04-11T18:23:06.587Z,9.60
2019-04-11T18:25:36.166Z,9.60
2019-04-11T18:28:05.236Z,9.60
2019-04-11T18:30:34.396Z,9.50
2019-04-11T18:33:04.787Z,9.50
2019-04-11T18:35:33.891Z,9.40
2019-04-11T18:38:03.207Z,9.30
2019-04-11T18:40:32.720Z,9.40
2019-04-11T18:43:02.070Z,9.30
2019-04-11T18:45:31.232Z,9.30
2019-04-11T18:48:01.095Z,9.30
2019-04-11T18:50:30.166Z,9.30
2019-04-11T18:53:00.135Z,9.20
2019-04-11T18:55:29.445Z,9.20
2019-04-11T18:57:58.678Z,9.20
2019-04-11T19:00:28.050Z,9.30
2019-04-11T19:02:57.202Z,9.20
2019-04-11T19:05:28.826Z,9.10
2019-04-11T19:07:58.182Z,9.10
2019-04-11T19:10:27.287Z,9.10
2019-04-11T19:12:56.971Z,9.00
2019-04-11T19:15:26.125Z,9.10
2019-04-11T19:18:06.066Z,9.00
2019-04-11T19:20:26.364Z,8.90
2019-04-11T19:22:56.261Z,8.80
2019-04-11T19:25:25.407Z,8.90
2019-04-11T19:27:57.182Z,8.80
2019-04-11T19:30:26.376Z,8.70
2019-04-11T19:32:56.187Z,8.70
2019-04-11T19:35:25.375Z,8.70
2019-04-11T19:37:58.794Z,8.60
2019-04-11T19:40:30.285Z,8.60
2019-04-11T19:42:58.623Z,8.60
2019-04-11T19:45:27.763Z,8.50
2019-04-11T19:47:56.884Z,8.50
2019-04-11T19:50:26.709Z,8.40
2019-04-11T19:52:57.005Z,8.40
2019-04-11T19:55:57.498Z,8.40
2019-04-11T19:58:27.518Z,8.40
2019-04-11T20:00:56.718Z,8.30
2019-04-11T20:03:25.894Z,8.30
2019-04-11T20:05:55.122Z,8.30
2019-04-11T20:08:24.535Z,8.20
2019-04-11T20:10:53.723Z,8.20
2019-04-11T20:13:22.860Z,8.20
2019-04-11T20:15:51.992Z,8.10
2019-04-11T20:18:22.590Z,8.10
2019-04-11T20:20:52.383Z,8.10
2019-04-11T20:23:22.771Z,8.00
2019-04-11T20:25:52.366Z,8.00
2019-04-11T20:28:21.558Z,8.00
2019-04-11T20:30:50.898Z,8.00
2019-04-11T20:33:27.029Z,8.00
2019-04-11T20:35:51.425Z,7.90
2019-04-11T20:38:20.683Z,7.90
2019-04-11T20:40:52.085Z,7.90
2019-04-11T20:43:24.410Z,7.90
2019-04-11T20:45:53.550Z,7.80
2019-04-11T20:48:24.914Z,7.80
2019-04-11T20:50:54.002Z,7.80
2019-04-11T20:53:23.243Z,7.80
2019-04-11T20:55:52.430Z,7.70
2019-04-11T20:58:27.132Z,7.70
2019-04-11T21:00:55.641Z,7.70
2019-04-11T21:03:23.251Z,7.70
2019-04-11T21:05:52.463Z,7.70
2019-04-11T21:08:24.017Z,7.70
2019-04-11T21:10:53.055Z,7.70
2019-04-11T21:13:23.087Z,7.60
2019-04-11T21:15:52.226Z,7.60
2019-04-11T21:18:25.665Z,7.60
2019-04-11T21:20:55.353Z,7.50
2019-04-11T21:23:27.366Z,7.50
2019-04-11T21:25:58.914Z,7.50
2019-04-11T21:28:29.804Z,7.50
2019-04-11T21:31:00.118Z,7.50
2019-04-11T21:33:34.225Z,7.50
2019-04-11T21:36:01.374Z,7.50
2019-04-11T21:38:31.552Z,7.40
2019-04-11T21:41:05.888Z,7.40
2019-04-11T21:43:36.316Z,7.40
2019-04-11T21:46:06.995Z,7.40
2019-04-11T21:48:36.543Z,7.30
2019-04-11T21:51:06.052Z,7.30
2019-04-11T21:53:36.787Z,7.30
2019-04-11T21:56:06.500Z,7.30
2019-04-11T21:58:35.849Z,7.30
2019-04-11T22:01:10.265Z,7.30
2019-04-11T22:03:39.431Z,7.20
2019-04-11T22:06:10.284Z,7.20
2019-04-11T22:08:39.493Z,7.20
2019-04-11T22:11:10.167Z,7.20
2019-04-11T22:13:40.347Z,7.20
2019-04-11T22:16:13.425Z,7.20
2019-04-11T22:18:44.345Z,7.10
2019-04-11T22:21:15.531Z,7.10
2019-04-11T22:23:49.064Z,7.10
2019-04-11T22:26:16.085Z,7.10
2019-04-11T22:28:45.270Z,7.00
2019-04-11T22:31:14.333Z,7.00
2019-04-11T22:33:52.656Z,7.00
2019-04-11T22:36:21.855Z,7.00
2019-04-11T22:38:50.934Z,7.00
2019-04-11T22:41:23.221Z,7.10
2019-04-11T22:43:54.307Z,7.00
2019-04-11T22:46:25.322Z,7.00
2019-04-11T22:48:55.482Z,7.00
2019-04-11T22:51:24.636Z,7.00
2019-04-11T22:54:00.163Z,6.90
2019-04-11T22:56:24.672Z,7.00
2019-04-11T22:58:53.837Z,7.00
2019-04-11T23:01:23.484Z,6.90
2019-04-11T23:04:02.433Z,6.90
2019-04-11T23:06:31.835Z,6.90
2019-04-11T23:09:00.821Z,6.90
2019-04-11T23:11:29.905Z,6.90
2019-04-11T23:14:01.902Z,7.00
2019-04-11T23:16:31.001Z,7.00
2019-04-11T23:19:00.292Z,7.00
2019-04-11T23:21:29.446Z,7.00
2019-04-11T23:23:59.255Z,7.00
2019-04-11T23:26:28.373Z,7.00
2019-04-11T23:28:57.664Z,7.00
2019-04-11T23:31:27.052Z,7.00
2019-04-11T23:33:56.818Z,7.00
2019-04-11T23:36:26.906Z,7.10
2019-04-11T23:38:58.811Z,7.10
2019-04-11T23:41:27.923Z,7.10
2019-04-11T23:43:57.286Z,7.10
2019-04-11T23:46:26.736Z,7.10
2019-04-11T23:48:56.474Z,7.10
2019-04-11T23:51:26.453Z,7.20
2019-04-11T23:53:58.973Z,7.20
2019-04-11T23:56:28.100Z,7.20
2019-04-11T23:59:01.547Z,7.20
